sensor_id;sensor_type;location;lat;lon;timestamp;temperature;humidity
63313;DHT22;49442;45.640;13.812;2023-04-15T00:00:42;8.60;99.90
63313;DHT22;49442;45.640;13.812;2023-04-15T00:03:07;8.50;99.90
63313;DHT22;49442;45.640;13.812;2023-04-15T00:05:33;8.50;99.90
63313;DHT22;49442;45.640;13.812;2023-04-15T00:07:59;8.50;99.90
63313;DHT22;49442;45.640;13.812;2023-04-15T00:10:26;8.50;99.90
63313;DHT22;49442;45.640;13.812;2023-04-15T00:12:52;8.50;99.90
63313;DHT22;49442;45.640;13.812;2023-04-15T00:15:18;8.50;99.90
63313;DHT22;49442;45.640;13.812;2023-04-15T00:17:44;8.50;99.90
63313;DHT22;49442;45.640;13.812;2023-04-15T00:20:10;8.50;99.90
63313;DHT22;49442;45.640;13.812;2023-04-15T00:22:36;8.50;99.90
63313;DHT22;49442;45.640;13.812;2023-04-15T00:25:02;8.40;99.90
63313;DHT22;49442;45.640;13.812;2023-04-15T00:27:28;8.40;99.90
63313;DHT22;49442;45.640;13.812;2023-04-15T00:29:54;8.40;99.90
63313;DHT22;49442;45.640;13.812;2023-04-15T00:32:20;8.30;99.90
63313;DHT22;49442;45.640;13.812;2023-04-15T00:34:46;8.40;99.90
63313;DHT22;49442;45.640;13.812;2023-04-15T00:37:12;8.40;99.90
63313;DHT22;49442;45.640;13.812;2023-04-15T00:39:38;8.40;99.90
63313;DHT22;49442;45.640;13.812;2023-04-15T00:42:04;8.40;99.90
63313;DHT22;49442;45.640;13.812;2023-04-15T00:44:30;8.40;99.90
63313;DHT22;49442;45.640;13.812;2023-04-15T00:46:59;8.40;99.90
63313;DHT22;49442;45.640;13.812;2023-04-15T00:49:24;8.40;99.90
63313;DHT22;49442;45.640;13.812;2023-04-15T00:51:51;8.40;99.90
63313;DHT22;49442;45.640;13.812;2023-04-15T00:54:17;8.40;99.90
63313;DHT22;49442;45.640;13.812;2023-04-15T00:56:42;8.30;99.90
63313;DHT22;49442;45.640;13.812;2023-04-15T00:59:08;8.40;99.90
63313;DHT22;49442;45.640;13.812;2023-04-15T01:01:35;8.40;99.90
63313;DHT22;49442;45.640;13.812;2023-04-15T01:04:02;8.40;99.90
63313;DHT22;49442;45.640;13.812;2023-04-15T01:06:28;8.40;99.90
63313;DHT22;49442;45.640;13.812;2023-04-15T01:08:54;8.40;99.90
63313;DHT22;49442;45.640;13.812;2023-04-15T01:11:20;8.40;99.90
63313;DHT22;49442;45.640;13.812;2023-04-15T01:13:49;8.40;99.90
63313;DHT22;49442;45.640;13.812;2023-04-15T01:16:15;8.40;99.90
63313;DHT22;49442;45.640;13.812;2023-04-15T01:18:41;8.40;99.90
63313;DHT22;49442;45.640;13.812;2023-04-15T01:21:07;8.40;99.90
63313;DHT22;49442;45.640;13.812;2023-04-15T01:23:36;8.30;99.90
63313;DHT22;49442;45.640;13.812;2023-04-15T01:26:03;8.40;99.90
63313;DHT22;49442;45.640;13.812;2023-04-15T01:28:32;8.40;99.90
63313;DHT22;49442;45.640;13.812;2023-04-15T01:31:12;8.30;99.90
63313;DHT22;49442;45.640;13.812;2023-04-15T01:33:42;8.30;99.90
63313;DHT22;49442;45.640;13.812;2023-04-15T01:36:09;8.30;99.90
63313;DHT22;49442;45.640;13.812;2023-04-15T01:38:36;8.30;99.90
63313;DHT22;49442;45.640;13.812;2023-04-15T01:41:02;8.30;99.90
63313;DHT22;49442;45.640;13.812;2023-04-15T01:43:33;8.30;99.90
63313;DHT22;49442;45.640;13.812;2023-04-15T01:45:58;8.30;99.90
63313;DHT22;49442;45.640;13.812;2023-04-15T01:48:24;8.30;99.90
63313;DHT22;49442;45.640;13.812;2023-04-15T01:50:53;8.30;99.90
63313;DHT22;49442;45.640;13.812;2023-04-15T01:53:19;8.20;99.90
63313;DHT22;49442;45.640;13.812;2023-04-15T01:55:45;8.20;99.90
63313;DHT22;49442;45.640;13.812;2023-04-15T01:58:11;8.20;99.90
63313;DHT22;49442;45.640;13.812;2023-04-15T02:00:36;8.10;99.90
63313;DHT22;49442;45.640;13.812;2023-04-15T02:03:02;8.10;99.90
63313;DHT22;49442;45.640;13.812;2023-04-15T02:05:28;8.20;99.90
63313;DHT22;49442;45.640;13.812;2023-04-15T02:07:54;8.10;99.90
63313;DHT22;49442;45.640;13.812;2023-04-15T02:10:20;8.10;99.90
63313;DHT22;49442;45.640;13.812;2023-04-15T02:12:45;8.10;99.90
63313;DHT22;49442;45.640;13.812;2023-04-15T02:15:11;8.00;99.90
63313;DHT22;49442;45.640;13.812;2023-04-15T02:17:37;8.00;99.90
63313;DHT22;49442;45.640;13.812;2023-04-15T02:20:03;8.00;99.90
63313;DHT22;49442;45.640;13.812;2023-04-15T02:22:33;8.00;99.90
63313;DHT22;49442;45.640;13.812;2023-04-15T02:24:59;8.00;99.90
63313;DHT22;49442;45.640;13.812;2023-04-15T02:27:24;7.90;99.90
63313;DHT22;49442;45.640;13.812;2023-04-15T02:29:50;8.00;99.90
63313;DHT22;49442;45.640;13.812;2023-04-15T02:32:16;8.00;99.90
63313;DHT22;49442;45.640;13.812;2023-04-15T02:34:43;8.00;99.90
63313;DHT22;49442;45.640;13.812;2023-04-15T02:37:12;8.00;99.90
63313;DHT22;49442;45.640;13.812;2023-04-15T02:39:37;8.00;99.90
63313;DHT22;49442;45.640;13.812;2023-04-15T02:42:04;8.10;99.90
63313;DHT22;49442;45.640;13.812;2023-04-15T02:44:31;8.00;99.90
63313;DHT22;49442;45.640;13.812;2023-04-15T02:46:57;8.00;99.90
63313;DHT22;49442;45.640;13.812;2023-04-15T02:49:24;8.00;99.90
63313;DHT22;49442;45.640;13.812;2023-04-15T02:51:50;8.00;99.90
63313;DHT22;49442;45.640;13.812;2023-04-15T02:54:20;7.90;99.90
63313;DHT22;49442;45.640;13.812;2023-04-15T02:56:47;8.00;99.90
63313;DHT22;49442;45.640;13.812;2023-04-15T02:59:13;8.00;99.90
63313;DHT22;49442;45.640;13.812;2023-04-15T03:01:38;8.00;99.90
63313;DHT22;49442;45.640;13.812;2023-04-15T03:04:04;8.10;99.90
63313;DHT22;49442;45.640;13.812;2023-04-15T03:06:32;8.10;99.90
63313;DHT22;49442;45.640;13.812;2023-04-15T03:08:57;8.20;99.90
63313;DHT22;49442;45.640;13.812;2023-04-15T03:11:24;8.20;99.90
63313;DHT22;49442;45.640;13.812;2023-04-15T03:13:51;8.20;99.90
63313;DHT22;49442;45.640;13.812;2023-04-15T03:16:17;8.20;99.90
63313;DHT22;49442;45.640;13.812;2023-04-15T03:18:43;8.10;99.90
63313;DHT22;49442;45.640;13.812;2023-04-15T03:21:08;8.10;99.90
63313;DHT22;49442;45.640;13.812;2023-04-15T03:23:34;8.10;99.90
63313;DHT22;49442;45.640;13.812;2023-04-15T03:26:03;8.10;99.90
63313;DHT22;49442;45.640;13.812;2023-04-15T03:28:30;8.10;99.90
63313;DHT22;49442;45.640;13.812;2023-04-15T03:30:57;8.10;99.90
63313;DHT22;49442;45.640;13.812;2023-04-15T03:33:22;8.10;99.90
63313;DHT22;49442;45.640;13.812;2023-04-15T03:35:49;8.00;99.90
63313;DHT22;49442;45.640;13.812;2023-04-15T03:38:15;8.00;99.90
63313;DHT22;49442;45.640;13.812;2023-04-15T03:40:41;8.00;99.90
63313;DHT22;49442;45.640;13.812;2023-04-15T03:43:07;8.00;99.90
63313;DHT22;49442;45.640;13.812;2023-04-15T03:45:33;8.00;99.90
63313;DHT22;49442;45.640;13.812;2023-04-15T03:47:58;8.00;99.90
63313;DHT22;49442;45.640;13.812;2023-04-15T03:50:24;8.10;99.90
63313;DHT22;49442;45.640;13.812;2023-04-15T03:52:50;8.00;99.90
63313;DHT22;49442;45.640;13.812;2023-04-15T03:55:16;8.00;99.90
63313;DHT22;49442;45.640;13.812;2023-04-15T03:57:41;8.00;99.90
63313;DHT22;49442;45.640;13.812;2023-04-15T04:00:08;8.00;99.90
63313;DHT22;49442;45.640;13.812;2023-04-15T04:02:34;8.00;99.90
63313;DHT22;49442;45.640;13.812;2023-04-15T04:05:00;8.00;99.90
63313;DHT22;49442;45.640;13.812;2023-04-15T04:07:25;7.90;99.90
63313;DHT22;49442;45.640;13.812;2023-04-15T04:09:51;7.90;99.90
63313;DHT22;49442;45.640;13.812;2023-04-15T04:12:17;7.90;99.90
63313;DHT22;49442;45.640;13.812;2023-04-15T04:14:42;7.90;99.90
63313;DHT22;49442;45.640;13.812;2023-04-15T04:17:08;7.90;99.90
63313;DHT22;49442;45.640;13.812;2023-04-15T04:19:34;7.90;99.90
63313;DHT22;49442;45.640;13.812;2023-04-15T04:22:00;7.90;99.90
63313;DHT22;49442;45.640;13.812;2023-04-15T04:24:26;8.00;99.90
63313;DHT22;49442;45.640;13.812;2023-04-15T04:26:52;8.00;99.90
63313;DHT22;49442;45.640;13.812;2023-04-15T04:29:18;7.90;99.90
63313;DHT22;49442;45.640;13.812;2023-04-15T04:31:43;7.90;99.90
63313;DHT22;49442;45.640;13.812;2023-04-15T04:34:09;8.00;99.90
63313;DHT22;49442;45.640;13.812;2023-04-15T04:36:35;7.90;99.90
63313;DHT22;49442;45.640;13.812;2023-04-15T04:39:01;7.90;99.90
63313;DHT22;49442;45.640;13.812;2023-04-15T04:41:26;8.00;99.90
63313;DHT22;49442;45.640;13.812;2023-04-15T04:43:52;8.00;99.90
63313;DHT22;49442;45.640;13.812;2023-04-15T04:46:18;7.90;99.90
63313;DHT22;49442;45.640;13.812;2023-04-15T04:48:44;8.00;99.90
63313;DHT22;49442;45.640;13.812;2023-04-15T04:51:10;8.00;99.90
63313;DHT22;49442;45.640;13.812;2023-04-15T04:53:36;8.00;99.90
63313;DHT22;49442;45.640;13.812;2023-04-15T04:56:02;8.00;99.90
63313;DHT22;49442;45.640;13.812;2023-04-15T04:58:28;8.00;99.90
63313;DHT22;49442;45.640;13.812;2023-04-15T05:00:54;8.10;99.90
63313;DHT22;49442;45.640;13.812;2023-04-15T05:03:21;8.10;99.90
63313;DHT22;49442;45.640;13.812;2023-04-15T05:05:46;8.10;99.90
63313;DHT22;49442;45.640;13.812;2023-04-15T05:08:14;8.20;99.90
63313;DHT22;49442;45.640;13.812;2023-04-15T05:10:40;8.20;99.90
63313;DHT22;49442;45.640;13.812;2023-04-15T05:13:06;8.20;99.90
63313;DHT22;49442;45.640;13.812;2023-04-15T05:15:32;8.20;99.90
63313;DHT22;49442;45.640;13.812;2023-04-15T05:17:59;8.20;99.90
63313;DHT22;49442;45.640;13.812;2023-04-15T05:20:25;8.30;99.90
63313;DHT22;49442;45.640;13.812;2023-04-15T05:22:51;8.30;99.90
63313;DHT22;49442;45.640;13.812;2023-04-15T05:25:16;8.30;99.90
63313;DHT22;49442;45.640;13.812;2023-04-15T05:27:42;8.40;99.90
63313;DHT22;49442;45.640;13.812;2023-04-15T05:30:08;8.50;99.90
63313;DHT22;49442;45.640;13.812;2023-04-15T05:32:34;8.50;99.90
63313;DHT22;49442;45.640;13.812;2023-04-15T05:35:00;8.60;99.90
63313;DHT22;49442;45.640;13.812;2023-04-15T05:37:25;8.60;99.90
63313;DHT22;49442;45.640;13.812;2023-04-15T05:39:51;8.60;99.90
63313;DHT22;49442;45.640;13.812;2023-04-15T05:42:17;8.70;99.90
63313;DHT22;49442;45.640;13.812;2023-04-15T05:44:43;8.90;99.90
63313;DHT22;49442;45.640;13.812;2023-04-15T05:47:08;9.10;99.90
63313;DHT22;49442;45.640;13.812;2023-04-15T05:49:35;9.20;99.90
63313;DHT22;49442;45.640;13.812;2023-04-15T05:52:01;9.30;99.90
63313;DHT22;49442;45.640;13.812;2023-04-15T05:54:27;9.30;99.90
63313;DHT22;49442;45.640;13.812;2023-04-15T05:56:53;9.40;99.90
63313;DHT22;49442;45.640;13.812;2023-04-15T05:59:19;9.60;99.90
63313;DHT22;49442;45.640;13.812;2023-04-15T06:01:45;9.70;99.90
63313;DHT22;49442;45.640;13.812;2023-04-15T06:04:10;9.80;99.90
63313;DHT22;49442;45.640;13.812;2023-04-15T06:06:36;9.80;99.90
63313;DHT22;49442;45.640;13.812;2023-04-15T06:09:03;9.90;99.90
63313;DHT22;49442;45.640;13.812;2023-04-15T06:11:29;9.90;99.90
63313;DHT22;49442;45.640;13.812;2023-04-15T06:13:54;9.90;99.90
63313;DHT22;49442;45.640;13.812;2023-04-15T06:16:21;10.00;99.90
63313;DHT22;49442;45.640;13.812;2023-04-15T06:18:47;10.10;99.90
63313;DHT22;49442;45.640;13.812;2023-04-15T06:21:14;10.10;99.90
63313;DHT22;49442;45.640;13.812;2023-04-15T06:23:40;10.20;99.90
63313;DHT22;49442;45.640;13.812;2023-04-15T06:26:06;10.20;99.90
63313;DHT22;49442;45.640;13.812;2023-04-15T06:28:32;10.30;99.90
63313;DHT22;49442;45.640;13.812;2023-04-15T06:30:58;10.30;99.90
63313;DHT22;49442;45.640;13.812;2023-04-15T06:33:23;10.40;99.90
63313;DHT22;49442;45.640;13.812;2023-04-15T06:35:49;10.40;99.90
63313;DHT22;49442;45.640;13.812;2023-04-15T06:38:15;10.50;99.90
63313;DHT22;49442;45.640;13.812;2023-04-15T06:40:41;10.50;99.90
63313;DHT22;49442;45.640;13.812;2023-04-15T06:43:07;10.70;99.90
63313;DHT22;49442;45.640;13.812;2023-04-15T06:45:33;10.70;99.90
63313;DHT22;49442;45.640;13.812;2023-04-15T06:47:59;10.70;99.90
63313;DHT22;49442;45.640;13.812;2023-04-15T06:50:25;10.80;99.90
63313;DHT22;49442;45.640;13.812;2023-04-15T06:52:53;10.90;99.90
63313;DHT22;49442;45.640;13.812;2023-04-15T06:55:18;10.90;99.90
63313;DHT22;49442;45.640;13.812;2023-04-15T06:57:44;11.00;99.90
63313;DHT22;49442;45.640;13.812;2023-04-15T07:00:10;11.10;99.90
63313;DHT22;49442;45.640;13.812;2023-04-15T07:02:36;11.10;99.90
63313;DHT22;49442;45.640;13.812;2023-04-15T07:05:03;11.20;99.90
63313;DHT22;49442;45.640;13.812;2023-04-15T07:07:29;11.20;99.90
63313;DHT22;49442;45.640;13.812;2023-04-15T07:09:54;11.40;99.90
63313;DHT22;49442;45.640;13.812;2023-04-15T07:12:20;11.40;99.90
63313;DHT22;49442;45.640;13.812;2023-04-15T07:14:46;11.50;99.90
63313;DHT22;49442;45.640;13.812;2023-04-15T07:17:12;11.60;99.90
63313;DHT22;49442;45.640;13.812;2023-04-15T07:19:38;11.60;99.90
63313;DHT22;49442;45.640;13.812;2023-04-15T07:22:03;11.70;99.90
63313;DHT22;49442;45.640;13.812;2023-04-15T07:24:29;11.90;99.90
63313;DHT22;49442;45.640;13.812;2023-04-15T07:26:55;11.90;99.90
63313;DHT22;49442;45.640;13.812;2023-04-15T07:29:22;11.90;99.90
63313;DHT22;49442;45.640;13.812;2023-04-15T07:31:48;12.00;99.90
63313;DHT22;49442;45.640;13.812;2023-04-15T07:34:14;12.00;99.90
63313;DHT22;49442;45.640;13.812;2023-04-15T07:36:41;12.10;99.90
63313;DHT22;49442;45.640;13.812;2023-04-15T07:39:06;12.10;99.90
63313;DHT22;49442;45.640;13.812;2023-04-15T07:41:32;12.10;99.90
63313;DHT22;49442;45.640;13.812;2023-04-15T07:43:58;12.10;99.90
63313;DHT22;49442;45.640;13.812;2023-04-15T07:46:24;12.30;99.90
63313;DHT22;49442;45.640;13.812;2023-04-15T07:48:52;12.40;99.90
63313;DHT22;49442;45.640;13.812;2023-04-15T07:51:18;12.50;99.90
63313;DHT22;49442;45.640;13.812;2023-04-15T07:53:46;12.50;99.90
63313;DHT22;49442;45.640;13.812;2023-04-15T07:56:12;12.60;99.90
63313;DHT22;49442;45.640;13.812;2023-04-15T07:58:37;12.60;99.90
63313;DHT22;49442;45.640;13.812;2023-04-15T08:01:04;12.70;99.90
63313;DHT22;49442;45.640;13.812;2023-04-15T08:03:29;12.70;99.90
63313;DHT22;49442;45.640;13.812;2023-04-15T08:05:56;12.80;99.90
63313;DHT22;49442;45.640;13.812;2023-04-15T08:08:22;12.80;99.90
63313;DHT22;49442;45.640;13.812;2023-04-15T08:10:48;12.90;99.90
63313;DHT22;49442;45.640;13.812;2023-04-15T08:13:14;13.00;99.90
63313;DHT22;49442;45.640;13.812;2023-04-15T08:15:39;13.10;99.90
63313;DHT22;49442;45.640;13.812;2023-04-15T08:18:05;13.10;99.90
63313;DHT22;49442;45.640;13.812;2023-04-15T08:20:31;13.20;99.90
63313;DHT22;49442;45.640;13.812;2023-04-15T08:22:57;13.30;99.90
63313;DHT22;49442;45.640;13.812;2023-04-15T08:25:23;13.40;99.90
63313;DHT22;49442;45.640;13.812;2023-04-15T08:27:49;13.50;99.90
63313;DHT22;49442;45.640;13.812;2023-04-15T08:30:15;13.50;99.90
63313;DHT22;49442;45.640;13.812;2023-04-15T08:32:42;13.40;99.90
63313;DHT22;49442;45.640;13.812;2023-04-15T08:35:10;13.30;99.90
63313;DHT22;49442;45.640;13.812;2023-04-15T08:37:36;13.30;99.90
63313;DHT22;49442;45.640;13.812;2023-04-15T08:40:02;13.40;99.90
63313;DHT22;49442;45.640;13.812;2023-04-15T08:42:31;13.40;99.90
63313;DHT22;49442;45.640;13.812;2023-04-15T08:44:59;13.40;99.90
63313;DHT22;49442;45.640;13.812;2023-04-15T08:47:29;13.50;99.90
63313;DHT22;49442;45.640;13.812;2023-04-15T08:49:56;13.50;99.90
63313;DHT22;49442;45.640;13.812;2023-04-15T08:52:26;13.50;99.90
63313;DHT22;49442;45.640;13.812;2023-04-15T08:54:55;13.50;99.90
63313;DHT22;49442;45.640;13.812;2023-04-15T08:57:25;13.60;99.90
63313;DHT22;49442;45.640;13.812;2023-04-15T08:59:52;13.60;99.90
63313;DHT22;49442;45.640;13.812;2023-04-15T09:02:18;13.60;99.90
63313;DHT22;49442;45.640;13.812;2023-04-15T09:04:44;13.70;99.90
63313;DHT22;49442;45.640;13.812;2023-04-15T09:07:10;13.70;99.90
63313;DHT22;49442;45.640;13.812;2023-04-15T09:09:35;13.70;99.90
63313;DHT22;49442;45.640;13.812;2023-04-15T09:12:04;13.80;99.90
63313;DHT22;49442;45.640;13.812;2023-04-15T09:14:30;13.90;99.90
63313;DHT22;49442;45.640;13.812;2023-04-15T09:17:01;14.00;99.90
63313;DHT22;49442;45.640;13.812;2023-04-15T09:19:28;14.10;99.90
63313;DHT22;49442;45.640;13.812;2023-04-15T09:21:55;14.20;99.90
63313;DHT22;49442;45.640;13.812;2023-04-15T09:24:24;14.30;99.90
63313;DHT22;49442;45.640;13.812;2023-04-15T09:26:52;14.10;99.90
63313;DHT22;49442;45.640;13.812;2023-04-15T09:29:19;14.30;99.90
63313;DHT22;49442;45.640;13.812;2023-04-15T09:31:45;14.30;99.90
63313;DHT22;49442;45.640;13.812;2023-04-15T09:34:10;14.50;99.90
63313;DHT22;49442;45.640;13.812;2023-04-15T09:36:53;14.70;99.90
63313;DHT22;49442;45.640;13.812;2023-04-15T09:39:19;14.80;99.90
63313;DHT22;49442;45.640;13.812;2023-04-15T09:41:45;14.90;99.90
63313;DHT22;49442;45.640;13.812;2023-04-15T09:44:24;15.10;99.90
63313;DHT22;49442;45.640;13.812;2023-04-15T09:46:50;15.40;99.90
63313;DHT22;49442;45.640;13.812;2023-04-15T09:49:16;15.30;99.90
63313;DHT22;49442;45.640;13.812;2023-04-15T09:51:42;15.40;99.90
63313;DHT22;49442;45.640;13.812;2023-04-15T09:54:08;15.50;99.90
63313;DHT22;49442;45.640;13.812;2023-04-15T09:56:36;15.60;99.90
63313;DHT22;49442;45.640;13.812;2023-04-15T09:59:04;15.70;99.90
63313;DHT22;49442;45.640;13.812;2023-04-15T10:01:30;15.70;99.90
63313;DHT22;49442;45.640;13.812;2023-04-15T10:03:57;15.70;99.90
63313;DHT22;49442;45.640;13.812;2023-04-15T10:06:26;15.70;99.90
63313;DHT22;49442;45.640;13.812;2023-04-15T10:08:53;15.40;99.90
63313;DHT22;49442;45.640;13.812;2023-04-15T10:11:20;15.40;99.90
63313;DHT22;49442;45.640;13.812;2023-04-15T10:13:49;15.30;99.90
63313;DHT22;49442;45.640;13.812;2023-04-15T10:16:18;15.30;99.90
63313;DHT22;49442;45.640;13.812;2023-04-15T10:18:46;15.20;99.90
63313;DHT22;49442;45.640;13.812;2023-04-15T10:21:13;15.20;99.90
63313;DHT22;49442;45.640;13.812;2023-04-15T10:23:45;15.10;99.90
63313;DHT22;49442;45.640;13.812;2023-04-15T10:26:12;15.00;99.90
63313;DHT22;49442;45.640;13.812;2023-04-15T10:28:40;15.00;99.90
63313;DHT22;49442;45.640;13.812;2023-04-15T10:31:06;14.80;99.90
63313;DHT22;49442;45.640;13.812;2023-04-15T10:33:32;14.70;99.90
63313;DHT22;49442;45.640;13.812;2023-04-15T10:35:59;14.70;99.90
63313;DHT22;49442;45.640;13.812;2023-04-15T10:38:40;14.70;99.90
63313;DHT22;49442;45.640;13.812;2023-04-15T10:41:24;14.60;99.90
63313;DHT22;49442;45.640;13.812;2023-04-15T10:49:23;14.30;99.90
63313;DHT22;49442;45.640;13.812;2023-04-15T10:51:56;14.20;99.90
63313;DHT22;49442;45.640;13.812;2023-04-15T11:02:39;14.30;99.90
63313;DHT22;49442;45.640;13.812;2023-04-15T11:05:06;14.60;99.90
63313;DHT22;49442;45.640;13.812;2023-04-15T11:07:37;14.70;99.90
63313;DHT22;49442;45.640;13.812;2023-04-15T11:13:00;14.60;99.90
63313;DHT22;49442;45.640;13.812;2023-04-15T11:18:22;14.50;99.90
63313;DHT22;49442;45.640;13.812;2023-04-15T11:20:50;14.50;99.90
63313;DHT22;49442;45.640;13.812;2023-04-15T11:26:03;14.50;99.90
63313;DHT22;49442;45.640;13.812;2023-04-15T11:28:32;14.40;99.90
63313;DHT22;49442;45.640;13.812;2023-04-15T11:31:12;14.30;99.90
63313;DHT22;49442;45.640;13.812;2023-04-15T11:33:57;14.20;99.90
63313;DHT22;49442;45.640;13.812;2023-04-15T11:36:28;14.10;99.90
63313;DHT22;49442;45.640;13.812;2023-04-15T11:38:56;14.00;99.90
63313;DHT22;49442;45.640;13.812;2023-04-15T11:41:23;13.90;99.90
63313;DHT22;49442;45.640;13.812;2023-04-15T11:43:49;13.90;99.90
63313;DHT22;49442;45.640;13.812;2023-04-15T11:46:15;13.80;99.90
63313;DHT22;49442;45.640;13.812;2023-04-15T11:48:43;13.70;99.90
63313;DHT22;49442;45.640;13.812;2023-04-15T11:51:10;13.70;99.90
63313;DHT22;49442;45.640;13.812;2023-04-15T11:53:43;13.60;99.90
63313;DHT22;49442;45.640;13.812;2023-04-15T11:58:42;13.40;99.90
63313;DHT22;49442;45.640;13.812;2023-04-15T12:01:10;13.40;99.90
63313;DHT22;49442;45.640;13.812;2023-04-15T12:03:37;13.30;99.90
63313;DHT22;49442;45.640;13.812;2023-04-15T12:06:20;13.30;99.90
63313;DHT22;49442;45.640;13.812;2023-04-15T12:08:56;13.30;99.90
63313;DHT22;49442;45.640;13.812;2023-04-15T12:13:54;13.00;99.90
63313;DHT22;49442;45.640;13.812;2023-04-15T12:16:22;13.00;99.90
63313;DHT22;49442;45.640;13.812;2023-04-15T12:18:56;13.00;99.90
63313;DHT22;49442;45.640;13.812;2023-04-15T12:21:24;12.90;99.90
63313;DHT22;49442;45.640;13.812;2023-04-15T12:23:54;12.90;99.90
63313;DHT22;49442;45.640;13.812;2023-04-15T12:26:32;12.90;99.90
63313;DHT22;49442;45.640;13.812;2023-04-15T12:29:02;12.90;99.90
63313;DHT22;49442;45.640;13.812;2023-04-15T12:31:28;13.10;99.90
63313;DHT22;49442;45.640;13.812;2023-04-15T12:33:55;13.10;99.90
63313;DHT22;49442;45.640;13.812;2023-04-15T12:36:21;13.10;99.90
63313;DHT22;49442;45.640;13.812;2023-04-15T12:38:47;13.30;99.90
63313;DHT22;49442;45.640;13.812;2023-04-15T12:41:13;13.50;99.90
63313;DHT22;49442;45.640;13.812;2023-04-15T12:43:39;13.60;99.90
63313;DHT22;49442;45.640;13.812;2023-04-15T12:46:05;13.70;99.90
63313;DHT22;49442;45.640;13.812;2023-04-15T12:48:33;13.80;99.90
63313;DHT22;49442;45.640;13.812;2023-04-15T12:50:59;14.00;99.90
63313;DHT22;49442;45.640;13.812;2023-04-15T12:53:25;14.10;99.90
63313;DHT22;49442;45.640;13.812;2023-04-15T12:55:51;14.00;99.90
63313;DHT22;49442;45.640;13.812;2023-04-15T12:58:17;14.00;99.90
63313;DHT22;49442;45.640;13.812;2023-04-15T13:00:43;14.30;99.90
63313;DHT22;49442;45.640;13.812;2023-04-15T13:03:09;14.40;99.90
63313;DHT22;49442;45.640;13.812;2023-04-15T13:05:35;14.50;99.90
63313;DHT22;49442;45.640;13.812;2023-04-15T13:08:03;14.40;99.90
63313;DHT22;49442;45.640;13.812;2023-04-15T13:10:29;14.50;99.90
63313;DHT22;49442;45.640;13.812;2023-04-15T13:12:56;14.50;99.90
63313;DHT22;49442;45.640;13.812;2023-04-15T13:15:22;14.40;99.90
63313;DHT22;49442;45.640;13.812;2023-04-15T13:17:48;14.50;99.90
63313;DHT22;49442;45.640;13.812;2023-04-15T13:20:14;14.40;99.90
63313;DHT22;49442;45.640;13.812;2023-04-15T13:22:40;14.30;99.90
63313;DHT22;49442;45.640;13.812;2023-04-15T13:25:07;14.30;99.90
63313;DHT22;49442;45.640;13.812;2023-04-15T13:27:33;14.30;99.90
63313;DHT22;49442;45.640;13.812;2023-04-15T13:29:59;14.30;99.90
63313;DHT22;49442;45.640;13.812;2023-04-15T13:32:25;14.10;99.90
63313;DHT22;49442;45.640;13.812;2023-04-15T13:34:51;14.10;99.90
63313;DHT22;49442;45.640;13.812;2023-04-15T13:37:17;14.00;99.90
63313;DHT22;49442;45.640;13.812;2023-04-15T13:39:42;14.00;99.90
63313;DHT22;49442;45.640;13.812;2023-04-15T13:42:08;13.90;99.90
63313;DHT22;49442;45.640;13.812;2023-04-15T13:44:34;13.80;99.90
63313;DHT22;49442;45.640;13.812;2023-04-15T13:47:00;13.90;99.90
63313;DHT22;49442;45.640;13.812;2023-04-15T13:49:26;13.90;99.90
63313;DHT22;49442;45.640;13.812;2023-04-15T13:51:51;13.90;99.90
63313;DHT22;49442;45.640;13.812;2023-04-15T13:54:17;13.70;99.90
63313;DHT22;49442;45.640;13.812;2023-04-15T13:56:43;13.70;99.90
63313;DHT22;49442;45.640;13.812;2023-04-15T13:59:10;13.70;99.90
63313;DHT22;49442;45.640;13.812;2023-04-15T14:01:36;13.60;99.90
63313;DHT22;49442;45.640;13.812;2023-04-15T14:04:02;13.60;99.90
63313;DHT22;49442;45.640;13.812;2023-04-15T14:06:27;13.40;99.90
63313;DHT22;49442;45.640;13.812;2023-04-15T14:08:54;13.40;99.90
63313;DHT22;49442;45.640;13.812;2023-04-15T14:11:19;13.50;99.90
63313;DHT22;49442;45.640;13.812;2023-04-15T14:13:45;13.60;99.90
63313;DHT22;49442;45.640;13.812;2023-04-15T14:16:11;13.60;99.90
63313;DHT22;49442;45.640;13.812;2023-04-15T14:18:36;13.50;99.90
63313;DHT22;49442;45.640;13.812;2023-04-15T14:21:03;13.50;99.90
63313;DHT22;49442;45.640;13.812;2023-04-15T14:23:29;13.30;99.90
63313;DHT22;49442;45.640;13.812;2023-04-15T14:25:55;13.30;99.90
63313;DHT22;49442;45.640;13.812;2023-04-15T14:28:21;13.30;99.90
63313;DHT22;49442;45.640;13.812;2023-04-15T14:30:46;13.20;99.90
63313;DHT22;49442;45.640;13.812;2023-04-15T14:33:12;13.10;99.90
63313;DHT22;49442;45.640;13.812;2023-04-15T14:35:38;13.10;99.90
63313;DHT22;49442;45.640;13.812;2023-04-15T14:38:04;12.80;99.90
63313;DHT22;49442;45.640;13.812;2023-04-15T14:40:31;12.80;99.90
63313;DHT22;49442;45.640;13.812;2023-04-15T14:42:57;12.70;99.90
63313;DHT22;49442;45.640;13.812;2023-04-15T14:45:23;12.60;99.90
63313;DHT22;49442;45.640;13.812;2023-04-15T14:47:48;12.60;99.90
63313;DHT22;49442;45.640;13.812;2023-04-15T14:50:14;12.50;99.90
63313;DHT22;49442;45.640;13.812;2023-04-15T14:52:40;12.40;99.90
63313;DHT22;49442;45.640;13.812;2023-04-15T14:55:10;12.30;99.90
63313;DHT22;49442;45.640;13.812;2023-04-15T14:57:37;12.30;99.90
63313;DHT22;49442;45.640;13.812;2023-04-15T15:00:03;12.10;99.90
63313;DHT22;49442;45.640;13.812;2023-04-15T15:02:29;11.90;99.90
63313;DHT22;49442;45.640;13.812;2023-04-15T15:04:56;11.80;99.90
63313;DHT22;49442;45.640;13.812;2023-04-15T15:07:22;11.70;99.90
63313;DHT22;49442;45.640;13.812;2023-04-15T15:09:48;11.60;99.90
63313;DHT22;49442;45.640;13.812;2023-04-15T15:12:14;11.60;99.90
63313;DHT22;49442;45.640;13.812;2023-04-15T15:14:41;11.40;99.90
63313;DHT22;49442;45.640;13.812;2023-04-15T15:17:06;11.50;99.90
63313;DHT22;49442;45.640;13.812;2023-04-15T15:19:32;11.40;99.90
63313;DHT22;49442;45.640;13.812;2023-04-15T15:21:58;11.40;99.90
63313;DHT22;49442;45.640;13.812;2023-04-15T15:24:23;11.30;99.90
63313;DHT22;49442;45.640;13.812;2023-04-15T15:26:49;11.30;99.90
63313;DHT22;49442;45.640;13.812;2023-04-15T15:29:15;11.20;99.90
63313;DHT22;49442;45.640;13.812;2023-04-15T15:31:41;11.20;99.90
63313;DHT22;49442;45.640;13.812;2023-04-15T15:34:07;11.20;99.90
63313;DHT22;49442;45.640;13.812;2023-04-15T15:36:32;11.00;99.90
63313;DHT22;49442;45.640;13.812;2023-04-15T15:38:58;10.80;99.90
63313;DHT22;49442;45.640;13.812;2023-04-15T15:41:24;10.40;99.90
63313;DHT22;49442;45.640;13.812;2023-04-15T15:43:53;10.20;99.90
63313;DHT22;49442;45.640;13.812;2023-04-15T15:46:19;9.90;99.90